createdAt,value
2023-01-07T00:01:09.257Z,5.90
2023-01-07T00:03:36.749Z,5.90
2023-01-07T00:06:09.505Z,5.90
2023-01-07T00:08:38.938Z,5.90
2023-01-07T00:11:08.814Z,5.90
2023-01-07T00:13:36.562Z,5.90
2023-01-07T00:16:11.239Z,5.90
2023-01-07T00:18:38.726Z,5.90
2023-01-07T00:21:09.104Z,5.90
2023-01-07T00:23:37.085Z,5.90
2023-01-07T00:26:06.263Z,5.90
2023-01-07T00:28:39.209Z,5.90
2023-01-07T00:31:11.728Z,5.90
2023-01-07T00:33:53.793Z,5.90
2023-01-07T00:36:23.076Z,5.90
2023-01-07T00:38:55.563Z,5.90
2023-01-07T00:41:23.016Z,5.90
2023-01-07T00:43:50.141Z,5.90
2023-01-07T00:46:17.834Z,5.90
2023-01-07T00:48:45.803Z,5.80
2023-01-07T00:51:15.404Z,5.90
2023-01-07T00:53:42.469Z,5.80
2023-01-07T00:56:10.330Z,5.80
2023-01-07T00:58:37.782Z,5.80
2023-01-07T01:01:05.004Z,5.80
2023-01-07T01:03:33.096Z,5.80
2023-01-07T01:06:05.024Z,5.80
2023-01-07T01:08:32.369Z,5.80
2023-01-07T01:11:06.792Z,5.70
2023-01-07T01:13:34.941Z,5.80
2023-01-07T01:16:02.307Z,5.80
2023-01-07T01:18:29.214Z,5.80
2023-01-07T01:20:56.159Z,5.80
2023-01-07T01:23:23.016Z,5.80
2023-01-07T01:25:49.946Z,5.70
2023-01-07T01:28:16.794Z,5.80
2023-01-07T01:30:43.578Z,5.80
2023-01-07T01:33:11.604Z,5.70
2023-01-07T01:35:42.211Z,5.70
2023-01-07T01:38:09.623Z,5.70
2023-01-07T01:40:37.511Z,5.70
2023-01-07T01:43:23.785Z,5.80
2023-01-07T01:45:50.908Z,5.80
2023-01-07T01:48:20.301Z,5.80
2023-01-07T01:50:49.364Z,5.80
2023-01-07T01:53:21.923Z,5.70
2023-01-07T01:55:58.572Z,5.70
2023-01-07T01:58:37.167Z,5.70
2023-01-07T02:01:05.250Z,5.80
2023-01-07T02:03:35.513Z,5.80
2023-01-07T02:06:02.814Z,5.80
2023-01-07T02:08:30.121Z,5.70
2023-01-07T02:11:21.968Z,5.80
2023-01-07T02:14:10.051Z,5.80
2023-01-07T02:16:45.895Z,5.70
2023-01-07T02:19:40.348Z,5.70
2023-01-07T02:22:30.776Z,5.70
2023-01-07T02:25:18.741Z,5.70
2023-01-07T02:27:45.701Z,5.60
2023-01-07T02:30:46.084Z,5.60
2023-01-07T02:33:28.573Z,5.60
2023-01-07T02:36:14.765Z,5.50
2023-01-07T02:38:51.371Z,5.60
2023-01-07T02:41:31.543Z,5.50
2023-01-07T02:44:12.071Z,5.60
2023-01-07T02:46:54.403Z,5.60
2023-01-07T02:49:21.695Z,5.60
2023-01-07T02:51:48.882Z,5.60
2023-01-07T02:54:21.689Z,5.60
2023-01-07T02:57:09.750Z,5.60
2023-01-07T03:00:04.428Z,5.50
2023-01-07T03:02:47.065Z,5.50
2023-01-07T03:05:58.533Z,5.50
2023-01-07T03:08:46.801Z,5.50
2023-01-07T03:11:14.953Z,5.50
2023-01-07T03:13:46.851Z,5.60
2023-01-07T03:16:40.106Z,5.70
2023-01-07T03:19:39.850Z,5.60
2023-01-07T03:22:08.250Z,5.60
2023-01-07T03:24:35.976Z,5.60
2023-01-07T03:27:06.162Z,5.50
2023-01-07T03:29:35.705Z,5.50
2023-01-07T03:32:18.778Z,5.60
2023-01-07T03:34:46.128Z,5.50
2023-01-07T03:37:20.733Z,5.40
2023-01-07T03:39:48.316Z,5.40
2023-01-07T03:42:40.361Z,5.40
2023-01-07T03:45:18.975Z,5.40
2023-01-07T03:47:50.890Z,5.40
2023-01-07T03:50:19.390Z,5.50
2023-01-07T03:52:51.092Z,5.40
2023-01-07T03:55:19.843Z,5.40
2023-01-07T03:57:48.819Z,5.40
2023-01-07T04:00:17.302Z,5.40
2023-01-07T04:02:51.661Z,5.40
2023-01-07T04:05:26.076Z,5.40
2023-01-07T04:07:53.244Z,5.40
2023-01-07T04:10:21.356Z,5.30
2023-01-07T04:12:48.228Z,5.30
2023-01-07T04:15:15.101Z,5.40
2023-01-07T04:17:41.926Z,5.40
2023-01-07T04:20:10.305Z,5.40
2023-01-07T04:22:37.523Z,5.40
2023-01-07T04:25:06.332Z,5.40
2023-01-07T04:27:34.273Z,5.30
2023-01-07T04:30:01.978Z,5.40
2023-01-07T04:32:34.054Z,5.40
2023-01-07T04:35:01.327Z,5.40
2023-01-07T04:37:29.712Z,5.30
2023-01-07T04:39:57.307Z,5.30
2023-01-07T04:42:24.262Z,5.40
2023-01-07T04:44:51.558Z,5.40
2023-01-07T04:47:18.391Z,5.40
2023-01-07T04:49:45.545Z,5.40
2023-01-07T04:52:12.701Z,5.40
2023-01-07T04:54:39.642Z,5.40
2023-01-07T04:57:06.745Z,5.40
2023-01-07T04:59:33.837Z,5.40
2023-01-07T05:02:02.296Z,5.40
2023-01-07T05:04:29.536Z,5.40
2023-01-07T05:06:57.771Z,5.40
2023-01-07T05:09:25.995Z,5.50
2023-01-07T05:11:52.866Z,5.50
2023-01-07T05:14:19.922Z,5.50
2023-01-07T05:16:51.122Z,5.50
2023-01-07T05:19:19.106Z,5.50
2023-01-07T05:21:48.505Z,5.50
2023-01-07T05:24:16.500Z,5.50
2023-01-07T05:26:43.741Z,5.50
2023-01-07T05:29:10.719Z,5.40
2023-01-07T05:31:38.959Z,5.40
2023-01-07T05:34:06.257Z,5.40
2023-01-07T05:36:33.598Z,5.40
2023-01-07T05:39:00.599Z,5.40
2023-01-07T05:41:27.790Z,5.40
2023-01-07T05:43:55.870Z,5.40
2023-01-07T05:46:22.784Z,5.40
2023-01-07T05:48:49.686Z,5.40
2023-01-07T05:51:16.512Z,5.40
2023-01-07T05:53:43.950Z,5.40
2023-01-07T05:56:10.728Z,5.40
2023-01-07T05:58:37.572Z,5.40
2023-01-07T06:01:04.567Z,5.40
2023-01-07T06:03:31.519Z,5.40
2023-01-07T06:05:58.483Z,5.30
2023-01-07T06:08:25.299Z,5.30
2023-01-07T06:10:52.088Z,5.30
2023-01-07T06:13:19.060Z,5.30
2023-01-07T06:15:45.903Z,5.30
2023-01-07T06:18:12.802Z,5.30
2023-01-07T06:20:39.622Z,5.30
2023-01-07T06:23:06.574Z,5.20
2023-01-07T06:25:33.472Z,5.20
2023-01-07T06:28:00.271Z,5.20
2023-01-07T06:30:27.283Z,5.20
2023-01-07T06:32:54.387Z,5.20
2023-01-07T06:35:21.795Z,5.20
2023-01-07T06:37:48.643Z,5.30
2023-01-07T06:40:15.700Z,5.30
2023-01-07T06:42:42.577Z,5.30
2023-01-07T06:45:11.496Z,5.30
2023-01-07T06:47:38.516Z,5.30
2023-01-07T06:50:05.774Z,5.30
2023-01-07T06:52:33.877Z,5.20
2023-01-07T06:55:00.697Z,5.20
2023-01-07T06:57:28.063Z,5.30
2023-01-07T06:59:54.853Z,5.30
2023-01-07T07:02:25.030Z,5.20
2023-01-07T07:04:52.556Z,5.20
2023-01-07T07:07:20.515Z,5.00
2023-01-07T07:09:48.228Z,5.10
2023-01-07T07:12:15.234Z,5.10
2023-01-07T07:14:42.281Z,5.10
2023-01-07T07:17:09.866Z,5.10
2023-01-07T07:19:39.732Z,5.20
2023-01-07T07:22:06.544Z,5.10
2023-01-07T07:24:33.832Z,5.10
2023-01-07T07:27:00.651Z,5.10
2023-01-07T07:29:27.931Z,5.10
2023-01-07T07:31:54.778Z,5.10
2023-01-07T07:34:21.592Z,5.10
2023-01-07T07:36:50.868Z,5.10
2023-01-07T07:39:17.793Z,5.10
2023-01-07T07:41:44.863Z,5.20
2023-01-07T07:44:11.722Z,5.20
2023-01-07T07:46:40.628Z,5.20
2023-01-07T07:49:08.223Z,5.20
2023-01-07T07:51:35.272Z,5.20
2023-01-07T07:54:02.025Z,5.10
2023-01-07T07:56:28.821Z,5.40
2023-01-07T07:58:55.630Z,5.50
2023-01-07T08:01:22.596Z,5.60
2023-01-07T08:03:49.451Z,5.70
2023-01-07T08:06:16.288Z,5.70
2023-01-07T08:08:43.574Z,5.80
2023-01-07T08:11:10.916Z,5.50
2023-01-07T08:13:37.637Z,5.40
2023-01-07T08:16:04.794Z,5.30
2023-01-07T08:18:31.680Z,5.30
2023-01-07T08:20:58.715Z,5.20
2023-01-07T08:23:27.938Z,5.20
2023-01-07T08:25:58.836Z,5.30
2023-01-07T08:28:25.594Z,5.20
2023-01-07T08:30:52.455Z,5.30
2023-01-07T08:33:19.312Z,5.30
2023-01-07T08:35:46.237Z,5.30
2023-01-07T08:38:13.027Z,5.20
2023-01-07T08:40:40.056Z,5.20
2023-01-07T08:43:08.834Z,5.30
2023-01-07T08:45:36.369Z,5.30
2023-01-07T08:48:03.435Z,5.30
2023-01-07T08:50:33.080Z,5.30
2023-01-07T08:53:00.227Z,5.30
2023-01-07T08:55:27.144Z,5.30
2023-01-07T08:57:53.944Z,5.30
2023-01-07T09:00:21.647Z,5.30
2023-01-07T09:02:51.142Z,5.40
2023-01-07T09:05:18.297Z,5.30
2023-01-07T09:07:45.147Z,5.40
2023-01-07T09:10:11.935Z,5.40
2023-01-07T09:12:38.970Z,5.40
2023-01-07T09:15:06.413Z,5.40
2023-01-07T09:17:33.689Z,5.50
2023-01-07T09:20:03.601Z,5.60
2023-01-07T09:22:31.909Z,5.50
2023-01-07T09:24:58.939Z,5.60
2023-01-07T09:27:27.069Z,5.60
2023-01-07T09:29:54.723Z,5.70
2023-01-07T09:32:21.991Z,5.80
2023-01-07T09:34:48.848Z,5.70
2023-01-07T09:37:19.030Z,5.90
2023-01-07T09:39:45.997Z,6.20
2023-01-07T09:42:37.058Z,6.60
2023-01-07T09:45:20.325Z,7.00
2023-01-07T09:47:50.988Z,7.50
2023-01-07T09:50:48.253Z,7.70
2023-01-07T09:53:26.967Z,7.80
2023-01-07T09:56:10.667Z,7.40
2023-01-07T09:58:44.354Z,7.10
2023-01-07T10:01:32.231Z,6.90
2023-01-07T10:04:10.966Z,6.70
2023-01-07T10:06:53.672Z,6.50
2023-01-07T10:09:44.015Z,6.60
2023-01-07T10:12:20.500Z,6.60
2023-01-07T10:15:11.035Z,6.40
2023-01-07T10:18:00.845Z,6.30
2023-01-07T10:20:27.843Z,6.30
2023-01-07T10:23:02.734Z,6.40
2023-01-07T10:25:39.970Z,6.40
2023-01-07T10:28:16.209Z,6.20
2023-01-07T10:30:46.231Z,6.00
2023-01-07T10:33:18.255Z,5.90
2023-01-07T10:35:47.925Z,5.90
2023-01-07T10:38:20.536Z,6.00
2023-01-07T10:40:56.969Z,6.20
2023-01-07T10:43:50.057Z,6.20
2023-01-07T10:46:41.244Z,6.00
2023-01-07T10:49:26.105Z,5.90
2023-01-07T10:52:26.971Z,5.90
2023-01-07T10:55:02.650Z,5.90
2023-01-07T10:57:31.472Z,6.10
2023-01-07T11:00:02.654Z,6.00
2023-01-07T11:02:30.453Z,6.00
2023-01-07T11:04:59.160Z,6.00
2023-01-07T11:07:46.765Z,6.20
2023-01-07T11:10:26.206Z,6.60
2023-01-07T11:12:57.192Z,6.70
2023-01-07T11:15:31.111Z,6.70
2023-01-07T11:18:00.765Z,7.10
2023-01-07T11:20:45.587Z,7.30
2023-01-07T11:23:39.662Z,7.40
2023-01-07T11:26:10.043Z,7.70
2023-01-07T11:28:40.680Z,7.80
2023-01-07T11:31:07.467Z,7.90
2023-01-07T11:34:01.308Z,8.00
2023-01-07T11:36:41.604Z,7.90
2023-01-07T11:39:11.627Z,7.80
2023-01-07T11:41:55.728Z,7.70
2023-01-07T11:44:22.644Z,7.70
2023-01-07T11:46:49.768Z,7.80
2023-01-07T11:49:31.879Z,8.00
2023-01-07T11:51:59.038Z,8.00
2023-01-07T11:54:29.006Z,7.80
2023-01-07T11:57:13.720Z,7.80
2023-01-07T11:59:40.519Z,7.80
2023-01-07T12:02:24.762Z,7.80
2023-01-07T12:05:26.258Z,7.70
2023-01-07T12:07:53.996Z,7.50
2023-01-07T12:10:29.525Z,7.70
2023-01-07T12:12:56.525Z,7.90
2023-01-07T12:15:28.485Z,8.00
2023-01-07T12:18:07.559Z,8.20
2023-01-07T12:20:41.244Z,8.10
2023-01-07T12:23:31.517Z,8.40
2023-01-07T12:26:14.326Z,8.50
2023-01-07T12:28:44.087Z,8.50
2023-01-07T12:31:27.556Z,8.40
2023-01-07T12:34:07.723Z,8.40
2023-01-07T12:36:42.431Z,8.30
2023-01-07T12:39:22.247Z,8.40
2023-01-07T12:42:02.447Z,8.60
2023-01-07T12:44:29.329Z,8.60
2023-01-07T12:47:32.569Z,8.50
2023-01-07T12:50:18.197Z,8.60
2023-01-07T12:53:18.434Z,8.60
2023-01-07T12:56:02.724Z,8.50
2023-01-07T12:58:35.226Z,8.40
2023-01-07T13:01:28.433Z,8.60
2023-01-07T13:03:58.061Z,8.80
2023-01-07T13:06:33.732Z,8.90
2023-01-07T13:09:24.702Z,8.90
2023-01-07T13:12:41.612Z,8.80
2023-01-07T13:15:16.579Z,9.00
2023-01-07T13:17:43.833Z,8.60
2023-01-07T13:20:15.413Z,8.80
2023-01-07T13:22:56.267Z,8.70
2023-01-07T13:26:00.615Z,8.70
2023-01-07T13:28:42.357Z,8.70
2023-01-07T13:31:42.775Z,8.80
2023-01-07T13:34:28.338Z,8.90
2023-01-07T13:37:12.761Z,8.90
2023-01-07T13:40:20.129Z,8.90
2023-01-07T13:43:07.795Z,8.80
2023-01-07T13:45:36.402Z,8.50
2023-01-07T13:48:08.143Z,8.30
2023-01-07T13:50:44.275Z,8.40
2023-01-07T13:53:16.888Z,8.70
2023-01-07T13:55:46.029Z,8.50
2023-01-07T13:58:31.109Z,8.50
2023-01-07T14:01:15.040Z,8.30
2023-01-07T14:03:53.183Z,8.20
2023-01-07T14:06:20.089Z,8.20
2023-01-07T14:09:13.470Z,8.30
2023-01-07T14:12:07.565Z,8.40
2023-01-07T14:14:40.453Z,8.50
2023-01-07T14:17:19.293Z,8.30
2023-01-07T14:20:12.145Z,8.30
2023-01-07T14:22:43.348Z,8.30
2023-01-07T14:25:28.746Z,8.30
2023-01-07T14:27:55.475Z,8.30
2023-01-07T14:30:27.132Z,8.30
2023-01-07T14:33:27.443Z,8.30
2023-01-07T14:36:04.304Z,8.50
2023-01-07T14:38:34.096Z,8.40
2023-01-07T14:41:16.197Z,8.40
2023-01-07T14:43:45.909Z,8.20
2023-01-07T14:46:22.299Z,8.00
2023-01-07T14:49:01.612Z,7.80
2023-01-07T14:51:36.153Z,7.60
2023-01-07T14:54:12.114Z,7.40
2023-01-07T14:57:05.340Z,7.20
2023-01-07T15:00:02.517Z,7.10
2023-01-07T15:03:04.882Z,7.00
2023-01-07T15:05:56.003Z,6.90
2023-01-07T15:08:44.805Z,6.80
2023-01-07T15:11:38.502Z,6.60
2023-01-07T15:14:32.584Z,6.60
2023-01-07T15:16:59.925Z,6.50
2023-01-07T15:19:26.839Z,6.40
2023-01-07T15:22:32.307Z,6.30
2023-01-07T15:25:34.526Z,6.30
2023-01-07T15:28:20.064Z,6.20
2023-01-07T15:30:57.060Z,6.20
2023-01-07T15:33:39.218Z,6.10
2023-01-07T15:36:11.459Z,6.00
2023-01-07T15:38:42.717Z,6.10
2023-01-07T15:41:29.211Z,6.00
2023-01-07T15:43:56.746Z,5.90
2023-01-07T15:46:25.507Z,5.80
2023-01-07T15:49:15.262Z,5.70
2023-01-07T15:51:45.101Z,5.60
2023-01-07T15:54:26.742Z,5.60
2023-01-07T15:57:02.724Z,5.60
2023-01-07T15:59:33.041Z,5.60
2023-01-07T16:02:24.984Z,5.50
2023-01-07T16:04:59.596Z,5.40
2023-01-07T16:07:29.929Z,5.40
2023-01-07T16:09:58.300Z,5.40
2023-01-07T16:12:49.371Z,5.40
2023-01-07T16:15:32.603Z,5.40
2023-01-07T16:18:02.048Z,5.40
2023-01-07T16:20:35.134Z,5.40
2023-01-07T16:23:11.269Z,5.40
2023-01-07T16:25:44.160Z,5.30
2023-01-07T16:28:20.749Z,5.30
2023-01-07T16:30:48.824Z,5.30
2023-01-07T16:33:18.649Z,5.30
2023-01-07T16:35:47.413Z,5.30
2023-01-07T16:38:15.497Z,5.20
2023-01-07T16:40:42.647Z,5.30
2023-01-07T16:43:33.175Z,5.40
2023-01-07T16:46:19.660Z,5.30
2023-01-07T16:48:48.548Z,5.30
2023-01-07T16:51:36.937Z,5.20
2023-01-07T16:54:31.747Z,5.20
2023-01-07T16:57:01.709Z,5.20
2023-01-07T16:59:53.609Z,5.20
2023-01-07T17:02:32.877Z,5.20
2023-01-07T17:05:19.348Z,5.20
2023-01-07T17:07:49.671Z,5.30
2023-01-07T17:10:20.773Z,5.20
2023-01-07T17:12:57.786Z,5.20
2023-01-07T17:15:39.415Z,5.20
2023-01-07T17:18:12.565Z,5.10
2023-01-07T17:21:00.114Z,5.00
2023-01-07T17:23:26.985Z,5.00
2023-01-07T17:26:02.225Z,4.90
2023-01-07T17:28:35.957Z,4.90
2023-01-07T17:31:03.629Z,4.90
2023-01-07T17:33:30.378Z,4.80
2023-01-07T17:35:57.587Z,4.90
2023-01-07T17:38:24.571Z,4.80
2023-01-07T17:40:52.155Z,4.80
2023-01-07T17:43:33.544Z,4.70
2023-01-07T17:46:11.850Z,4.70
2023-01-07T17:48:39.286Z,4.60
2023-01-07T17:51:07.156Z,4.70
2023-01-07T17:53:45.737Z,4.70
2023-01-07T17:56:12.745Z,4.60
2023-01-07T17:58:41.270Z,4.60
2023-01-07T18:01:10.207Z,4.60
2023-01-07T18:03:37.405Z,4.60
2023-01-07T18:06:11.978Z,4.50
2023-01-07T18:08:38.837Z,4.40
2023-01-07T18:11:24.186Z,4.40
2023-01-07T18:13:53.336Z,4.50
2023-01-07T18:16:20.641Z,4.50
2023-01-07T18:18:47.491Z,4.50
2023-01-07T18:21:14.262Z,4.40
2023-01-07T18:23:41.167Z,4.40
2023-01-07T18:26:08.215Z,4.50
2023-01-07T18:28:34.971Z,4.40
2023-01-07T18:31:01.904Z,4.40
2023-01-07T18:33:28.750Z,4.30
2023-01-07T18:35:55.541Z,4.30
2023-01-07T18:38:22.340Z,4.30
2023-01-07T18:40:49.135Z,4.30
2023-01-07T18:43:18.002Z,4.20
2023-01-07T18:45:45.855Z,4.20
2023-01-07T18:48:14.650Z,4.10
2023-01-07T18:50:43.228Z,4.10
2023-01-07T18:53:10.837Z,4.10
2023-01-07T18:55:39.418Z,4.10
2023-01-07T18:58:11.898Z,4.10
2023-01-07T19:00:42.469Z,4.10
2023-01-07T19:03:10.634Z,4.10
2023-01-07T19:05:41.028Z,4.00
2023-01-07T19:08:08.068Z,4.00
2023-01-07T19:10:34.885Z,3.90
2023-01-07T19:13:01.724Z,3.90
2023-01-07T19:15:28.794Z,3.90
2023-01-07T19:17:55.919Z,3.90
2023-01-07T19:20:22.884Z,3.80
2023-01-07T19:22:49.711Z,3.90
2023-01-07T19:25:16.566Z,3.90
2023-01-07T19:27:43.545Z,3.90
2023-01-07T19:30:11.966Z,3.80
2023-01-07T19:32:38.867Z,3.80
2023-01-07T19:35:06.329Z,3.80
2023-01-07T19:37:33.091Z,3.80
2023-01-07T19:40:01.137Z,3.80
2023-01-07T19:42:27.891Z,3.80
2023-01-07T19:44:54.763Z,3.80
2023-01-07T19:47:22.327Z,3.80
2023-01-07T19:49:49.080Z,3.80
2023-01-07T19:52:16.394Z,3.80
2023-01-07T19:54:43.625Z,3.80
2023-01-07T19:57:10.555Z,3.90
2023-01-07T19:59:37.299Z,3.80
2023-01-07T20:02:04.866Z,3.90
2023-01-07T20:04:31.770Z,3.90
2023-01-07T20:06:58.607Z,3.90
2023-01-07T20:09:25.496Z,3.90
2023-01-07T20:11:52.286Z,3.90
2023-01-07T20:14:19.138Z,3.90
2023-01-07T20:16:46.110Z,3.90
2023-01-07T20:19:13.013Z,3.90
2023-01-07T20:21:40.829Z,4.00
2023-01-07T20:24:08.055Z,3.90
2023-01-07T20:26:35.655Z,3.80
2023-01-07T20:29:02.400Z,3.80
2023-01-07T20:31:31.034Z,3.90
2023-01-07T20:33:59.116Z,3.80
2023-01-07T20:36:28.959Z,3.80
2023-01-07T20:38:56.164Z,3.80
2023-01-07T20:41:27.335Z,3.80
2023-01-07T20:43:56.328Z,3.80
2023-01-07T20:46:24.702Z,3.80
2023-01-07T20:48:52.227Z,3.80
2023-01-07T20:51:19.652Z,3.80
2023-01-07T20:53:47.372Z,3.70
2023-01-07T20:56:17.525Z,3.70
2023-01-07T20:58:44.466Z,3.70
2023-01-07T21:01:14.570Z,3.60
2023-01-07T21:03:42.254Z,3.60
2023-01-07T21:06:10.702Z,3.60
2023-01-07T21:08:38.154Z,3.70
2023-01-07T21:11:12.064Z,3.60
2023-01-07T21:13:39.195Z,3.60
2023-01-07T21:16:06.552Z,3.60
2023-01-07T21:18:34.293Z,3.60
2023-01-07T21:21:07.342Z,3.70
2023-01-07T21:23:34.474Z,3.60
2023-01-07T21:26:01.283Z,3.60
2023-01-07T21:28:28.095Z,3.60
2023-01-07T21:30:55.092Z,3.60
2023-01-07T21:33:21.851Z,3.60
2023-01-07T21:35:48.614Z,3.50
2023-01-07T21:38:15.411Z,3.50
2023-01-07T21:40:42.193Z,3.60
2023-01-07T21:43:08.959Z,3.60
2023-01-07T21:45:36.945Z,3.60
2023-01-07T21:48:04.155Z,3.50
2023-01-07T21:50:31.605Z,3.50
2023-01-07T21:52:58.552Z,3.60
2023-01-07T21:55:25.395Z,3.60
2023-01-07T21:57:52.138Z,3.60
2023-01-07T22:00:19.282Z,3.60
2023-01-07T22:02:46.182Z,3.50
2023-01-07T22:05:13.564Z,3.50
2023-01-07T22:07:40.389Z,3.60
2023-01-07T22:10:07.894Z,3.70
2023-01-07T22:12:34.769Z,3.70
2023-01-07T22:15:01.990Z,3.70
2023-01-07T22:17:28.849Z,3.60
2023-01-07T22:19:55.695Z,3.60
2023-01-07T22:22:22.569Z,3.60
2023-01-07T22:24:49.311Z,3.50
2023-01-07T22:27:16.090Z,3.40
2023-01-07T22:29:44.586Z,3.40
2023-01-07T22:32:11.366Z,3.30
2023-01-07T22:34:38.208Z,3.30
2023-01-07T22:37:14.447Z,3.20
2023-01-07T22:39:51.923Z,3.30
2023-01-07T22:42:22.865Z,3.30
2023-01-07T22:44:53.720Z,3.30
2023-01-07T22:47:25.966Z,3.30
2023-01-07T22:49:53.572Z,3.30
2023-01-07T22:52:20.729Z,3.30
2023-01-07T22:54:47.677Z,3.30
2023-01-07T22:57:14.929Z,3.30
2023-01-07T22:59:42.299Z,3.30
2023-01-07T23:02:09.804Z,3.30
2023-01-07T23:04:36.726Z,3.30
2023-01-07T23:07:03.592Z,3.30
2023-01-07T23:09:30.798Z,3.30
2023-01-07T23:12:00.584Z,3.20
2023-01-07T23:14:29.511Z,3.30
2023-01-07T23:16:57.114Z,3.30
2023-01-07T23:19:23.959Z,3.30
2023-01-07T23:21:53.911Z,3.30
2023-01-07T23:24:22.157Z,3.30
2023-01-07T23:26:51.435Z,3.30
2023-01-07T23:29:19.411Z,3.20
2023-01-07T23:31:46.344Z,3.20
2023-01-07T23:34:13.887Z,3.20
2023-01-07T23:36:40.712Z,3.10
2023-01-07T23:39:07.853Z,3.10
2023-01-07T23:41:34.834Z,3.10
2023-01-07T23:44:01.606Z,3.10
2023-01-07T23:46:28.372Z,3.00
2023-01-07T23:48:55.597Z,3.00
2023-01-07T23:51:22.438Z,3.10
2023-01-07T23:53:49.573Z,3.10
2023-01-07T23:56:20.669Z,3.10
2023-01-07T23:58:48.520Z,3.10
